createdAt,value
2023-02-11T00:00:18.405Z,92.47
2023-02-11T00:03:41.611Z,92.32
2023-02-11T00:06:50.121Z,92.25
2023-02-11T00:13:52.202Z,92.51
2023-02-11T00:17:07.121Z,92.77
2023-02-11T00:20:53.811Z,92.98
2023-02-11T00:24:04.730Z,93.04
2023-02-11T00:27:22.267Z,93.14
2023-02-11T00:30:33.261Z,93.25
2023-02-11T00:33:48.881Z,93.42
2023-02-11T00:36:57.074Z,93.59
2023-02-11T00:40:32.028Z,93.65
2023-02-11T00:44:04.107Z,93.72
2023-02-11T00:48:07.581Z,93.56
2023-02-11T00:51:22.457Z,93.33
2023-02-11T00:54:32.343Z,93.41
2023-02-11T00:57:47.117Z,93.62
2023-02-11T01:00:55.233Z,93.75
2023-02-11T01:04:10.102Z,93.75
2023-02-11T01:07:11.858Z,93.66
2023-02-11T01:14:05.770Z,94.03
2023-02-11T01:17:20.157Z,94.16
2023-02-11T01:24:12.230Z,94.31
2023-02-11T01:27:27.118Z,94.32
2023-02-11T01:31:15.141Z,94.34
2023-02-11T01:34:23.663Z,93.85
2023-02-11T01:37:32.110Z,93.48
2023-02-11T01:40:58.158Z,93.52
2023-02-11T01:44:38.226Z,93.64
2023-02-11T01:47:46.069Z,93.70
2023-02-11T01:51:13.454Z,93.86
2023-02-11T01:54:30.202Z,93.91
2023-02-11T01:57:41.676Z,94.10
2023-02-11T02:04:46.162Z,94.40
2023-02-11T02:08:09.522Z,94.40
2023-02-11T02:11:18.162Z,94.53
2023-02-11T02:14:26.910Z,94.67
2023-02-11T02:17:53.113Z,94.77
2023-02-11T02:21:15.559Z,94.83
2023-02-11T02:24:50.253Z,94.80
2023-02-11T02:28:20.254Z,94.98
2023-02-11T02:31:46.904Z,95.12
2023-02-11T02:35:16.146Z,95.45
2023-02-11T02:38:33.411Z,95.64
2023-02-11T02:41:45.103Z,95.94
2023-02-11T02:45:02.181Z,96.19
2023-02-11T02:48:10.154Z,96.39
2023-02-11T02:51:49.097Z,96.57
2023-02-11T02:55:19.270Z,96.61
2023-02-11T02:58:51.117Z,96.73
2023-02-11T03:02:14.623Z,96.74
2023-02-11T03:05:55.114Z,96.78
2023-02-11T03:12:50.122Z,96.96
2023-02-11T03:16:02.215Z,96.48
2023-02-11T03:19:17.246Z,96.52
2023-02-11T03:22:39.358Z,96.64
2023-02-11T03:25:49.737Z,96.88
2023-02-11T03:29:16.109Z,96.95
2023-02-11T03:32:43.109Z,97.09
2023-02-11T03:35:58.125Z,97.31
2023-02-11T03:39:08.142Z,97.41
2023-02-11T03:42:18.325Z,96.38
2023-02-11T03:45:30.193Z,95.94
2023-02-11T03:48:45.784Z,95.07
2023-02-11T03:51:58.141Z,95.21
2023-02-11T03:55:24.123Z,94.87
2023-02-11T03:58:32.670Z,94.84
2023-02-11T04:01:41.409Z,94.14
2023-02-11T04:04:49.655Z,93.95
2023-02-11T04:07:58.418Z,93.86
2023-02-11T04:11:13.790Z,94.02
2023-02-11T04:14:15.532Z,93.96
2023-02-11T04:17:56.095Z,94.79
2023-02-11T04:21:04.837Z,95.60
2023-02-11T04:24:13.169Z,96.13
2023-02-11T04:27:28.217Z,96.33
2023-02-11T04:33:59.133Z,97.16
2023-02-11T04:37:08.141Z,97.46
2023-02-11T04:40:26.190Z,97.79
2023-02-11T04:43:34.143Z,97.96
2023-02-11T04:46:49.181Z,98.22
2023-02-11T04:50:20.376Z,98.31
2023-02-11T04:53:38.385Z,98.38
2023-02-11T04:56:47.154Z,98.46
2023-02-11T04:59:58.490Z,98.60
2023-02-11T05:03:07.154Z,98.64
2023-02-11T05:06:22.162Z,98.66
2023-02-11T05:09:27.262Z,98.95
2023-02-11T05:12:48.063Z,99.09
2023-02-11T05:15:50.699Z,99.20
2023-02-11T05:19:05.229Z,99.27
2023-02-11T05:22:07.064Z,99.45
2023-02-11T05:25:22.185Z,99.41
2023-02-11T05:28:30.199Z,99.35
2023-02-11T05:31:45.177Z,99.27
2023-02-11T05:34:53.145Z,99.38
2023-02-11T05:38:08.145Z,99.22
2023-02-11T05:41:19.165Z,99.17
2023-02-11T05:44:27.992Z,99.00
2023-02-11T05:47:36.190Z,98.79
2023-02-11T05:50:59.957Z,98.82
2023-02-11T05:54:14.452Z,98.69
2023-02-11T05:57:29.255Z,98.44
2023-02-11T06:00:41.475Z,98.56
2023-02-11T06:07:38.176Z,98.73
2023-02-11T06:10:46.840Z,98.47
2023-02-11T06:13:55.180Z,98.57
2023-02-11T06:17:03.845Z,98.34
2023-02-11T06:20:14.172Z,98.02
2023-02-11T06:23:24.772Z,97.98
2023-02-11T06:26:33.113Z,98.06
2023-02-11T06:29:41.977Z,98.07
2023-02-11T06:33:03.174Z,98.11
2023-02-11T06:36:12.898Z,97.65
2023-02-11T06:39:59.222Z,97.10
2023-02-11T06:43:14.146Z,96.38
2023-02-11T06:46:22.755Z,95.81
2023-02-11T06:49:44.760Z,95.17
2023-02-11T06:53:11.314Z,94.79
2023-02-11T06:56:29.122Z,94.35
2023-02-11T06:59:38.189Z,93.94
2023-02-11T07:02:46.718Z,93.40
2023-02-11T07:05:55.224Z,93.26
2023-02-11T07:09:05.172Z,93.54
2023-02-11T07:12:17.458Z,93.40
2023-02-11T07:15:33.130Z,93.11
2023-02-11T07:18:42.407Z,92.75
2023-02-11T07:21:50.968Z,92.75
2023-02-11T07:24:59.124Z,92.61
2023-02-11T07:32:14.201Z,91.94
2023-02-11T07:35:29.186Z,90.64
2023-02-11T07:38:39.105Z,89.38
2023-02-11T07:41:54.121Z,88.18
2023-02-11T07:44:56.099Z,86.79
2023-02-11T07:48:11.131Z,85.71
2023-02-11T07:51:30.203Z,84.69
2023-02-11T07:55:04.884Z,83.29
2023-02-11T07:58:21.167Z,83.65
2023-02-11T08:01:26.559Z,82.48
2023-02-11T08:04:46.111Z,80.99
2023-02-11T08:08:01.909Z,80.18
2023-02-11T08:11:22.147Z,77.06
2023-02-11T08:14:24.005Z,76.38
2023-02-11T08:17:42.112Z,75.63
2023-02-11T08:20:50.569Z,74.92
2023-02-11T08:23:59.088Z,73.69
2023-02-11T08:27:07.159Z,72.74
2023-02-11T08:30:16.165Z,71.63
2023-02-11T08:33:24.141Z,70.67
2023-02-11T08:36:40.337Z,69.81
2023-02-11T08:39:48.233Z,70.64
2023-02-11T08:43:06.958Z,69.63
2023-02-11T08:46:13.469Z,69.74
2023-02-11T08:49:29.265Z,69.85
2023-02-11T08:53:09.413Z,68.92
2023-02-11T08:56:58.159Z,68.17
2023-02-11T09:00:17.433Z,66.50
2023-02-11T09:03:19.202Z,66.04
2023-02-11T09:07:26.326Z,65.69
2023-02-11T09:10:35.274Z,66.73
2023-02-11T09:13:54.167Z,67.27
2023-02-11T09:17:15.533Z,67.65
2023-02-11T09:20:17.458Z,67.38
2023-02-11T09:24:10.262Z,67.53
2023-02-11T09:28:05.196Z,66.32
2023-02-11T09:31:22.911Z,65.81
2023-02-11T09:34:38.313Z,63.28
2023-02-11T09:37:49.140Z,63.02
2023-02-11T09:52:45.160Z,61.40
2023-02-11T09:55:58.119Z,60.77
2023-02-11T09:59:20.241Z,61.75
2023-02-11T10:02:36.885Z,61.96
2023-02-11T10:10:32.549Z,62.86
2023-02-11T10:14:10.522Z,62.93
2023-02-11T10:17:42.439Z,62.62
2023-02-11T10:21:21.115Z,62.77
2023-02-11T10:24:36.517Z,62.94
2023-02-11T10:27:38.237Z,62.37
2023-02-11T10:31:06.291Z,61.29
2023-02-11T10:34:15.414Z,60.71
2023-02-11T10:37:24.186Z,60.34
2023-02-11T10:40:54.205Z,60.02
2023-02-11T10:44:06.409Z,59.23
2023-02-11T10:47:27.123Z,59.44
2023-02-11T10:50:49.356Z,58.98
2023-02-11T10:54:17.389Z,59.51
2023-02-11T10:57:44.197Z,59.57
2023-02-11T11:08:47.162Z,56.90
2023-02-11T11:11:55.885Z,55.57
2023-02-11T11:15:26.175Z,55.34
2023-02-11T11:22:45.177Z,54.27
2023-02-11T11:26:17.950Z,55.04
2023-02-11T11:29:37.285Z,56.15
2023-02-11T11:32:49.178Z,56.79
2023-02-11T11:40:24.914Z,57.96
2023-02-11T11:47:12.253Z,55.44
2023-02-11T11:50:35.030Z,53.88
2023-02-11T11:53:58.231Z,53.32
2023-02-11T12:01:47.263Z,50.89
2023-02-11T12:05:25.169Z,50.13
2023-02-11T12:08:51.206Z,48.67
2023-02-11T12:12:26.189Z,48.39
2023-02-11T12:15:51.686Z,48.07
2023-02-11T12:19:39.310Z,47.88
2023-02-11T12:23:11.222Z,47.96
2023-02-11T12:26:19.475Z,47.97
2023-02-11T12:29:58.349Z,48.26
2023-02-11T12:33:21.261Z,48.21
2023-02-11T12:36:45.183Z,48.18
2023-02-11T12:40:06.199Z,48.02
2023-02-11T12:43:30.167Z,47.84
2023-02-11T12:46:49.988Z,47.30
2023-02-11T12:50:18.282Z,47.61
2023-02-11T12:53:45.989Z,47.50
2023-02-11T12:57:08.190Z,46.78
2023-02-11T13:00:32.218Z,46.54
2023-02-11T13:03:47.270Z,47.16
2023-02-11T13:07:04.204Z,47.27
2023-02-11T13:14:12.181Z,46.00
2023-02-11T13:17:30.459Z,47.24
2023-02-11T13:21:23.274Z,45.42
2023-02-11T13:24:53.210Z,43.86
2023-02-11T13:28:53.151Z,44.06
2023-02-11T13:32:19.210Z,44.19
2023-02-11T13:35:37.180Z,43.14
2023-02-11T13:38:58.315Z,42.78
2023-02-11T13:42:10.218Z,42.84
2023-02-11T13:45:38.286Z,43.03
2023-02-11T13:48:51.222Z,42.73
2023-02-11T13:52:08.193Z,43.22
2023-02-11T13:55:21.544Z,43.08
2023-02-11T13:58:43.213Z,43.44
2023-02-11T14:02:12.210Z,43.81
2023-02-11T14:05:27.372Z,44.23
2023-02-11T14:08:42.204Z,44.27
2023-02-11T14:11:55.190Z,44.64
2023-02-11T14:15:25.379Z,44.86
2023-02-11T14:18:46.156Z,44.63
2023-02-11T14:22:09.302Z,44.94
2023-02-11T14:25:23.594Z,44.88
2023-02-11T14:28:39.354Z,44.86
2023-02-11T14:32:12.280Z,44.82
2023-02-11T14:35:31.045Z,45.02
2023-02-11T14:42:23.346Z,45.38
2023-02-11T14:45:35.297Z,45.66
2023-02-11T14:48:48.545Z,45.78
2023-02-11T14:52:00.198Z,46.38
2023-02-11T14:55:39.478Z,46.62
2023-02-11T14:59:25.238Z,46.78
2023-02-11T15:02:51.431Z,47.01
2023-02-11T15:06:26.488Z,47.33
2023-02-11T15:09:48.423Z,47.77
2023-02-11T15:20:40.253Z,49.45
2023-02-11T15:24:05.229Z,49.87
2023-02-11T15:27:16.800Z,49.59
2023-02-11T15:30:43.218Z,49.23
2023-02-11T15:38:24.863Z,49.18
2023-02-11T15:41:48.261Z,49.84
2023-02-11T15:49:23.306Z,50.54
2023-02-11T15:56:31.611Z,51.13
2023-02-11T15:59:52.274Z,51.77
2023-02-11T16:03:47.728Z,52.07
2023-02-11T16:07:49.677Z,52.85
2023-02-11T16:11:39.458Z,53.12
2023-02-11T16:19:25.725Z,53.73
2023-02-11T16:22:36.913Z,53.78
2023-02-11T16:26:19.746Z,53.67
2023-02-11T16:29:38.308Z,54.00
2023-02-11T16:34:29.415Z,54.31
2023-02-11T16:37:28.780Z,55.68
2023-02-11T16:40:50.442Z,54.93
2023-02-11T16:44:40.965Z,54.85
2023-02-11T16:51:26.871Z,54.56
2023-02-11T16:55:06.241Z,55.25
2023-02-11T16:58:20.703Z,55.59
2023-02-11T17:01:52.394Z,56.06
2023-02-11T17:08:46.858Z,56.22
2023-02-11T17:12:19.383Z,56.24
2023-02-11T17:15:37.739Z,56.25
2023-02-11T17:19:16.869Z,56.33
2023-02-11T17:22:40.461Z,56.48
2023-02-11T17:26:13.722Z,56.75
2023-02-11T17:29:32.490Z,56.96
2023-02-11T17:32:49.868Z,56.90
2023-02-11T17:36:23.930Z,57.12
2023-02-11T17:39:33.242Z,57.26
2023-02-11T17:42:45.305Z,57.21
2023-02-11T17:46:08.384Z,57.13
2023-02-11T17:49:26.329Z,56.98
2023-02-11T17:52:35.652Z,57.17
2023-02-11T17:55:44.655Z,56.90
2023-02-11T17:58:57.568Z,57.11
2023-02-11T18:02:35.587Z,57.14
2023-02-11T18:06:07.318Z,57.61
2023-02-11T18:09:10.327Z,57.59
2023-02-11T18:12:26.324Z,57.31
2023-02-11T18:15:28.096Z,57.56
2023-02-11T18:18:43.222Z,57.80
2023-02-11T18:21:53.203Z,57.49
2023-02-11T18:25:13.328Z,57.50
2023-02-11T18:28:15.604Z,57.52
2023-02-11T18:31:32.350Z,57.81
2023-02-11T18:34:43.319Z,57.88
2023-02-11T18:37:53.165Z,58.33
2023-02-11T18:41:04.270Z,59.23
2023-02-11T18:48:32.382Z,60.75
2023-02-11T18:51:48.268Z,60.03
2023-02-11T18:55:04.221Z,59.86
2023-02-11T18:58:06.860Z,60.19
2023-02-11T19:01:26.294Z,60.03
2023-02-11T19:04:28.470Z,60.15
2023-02-11T19:07:44.341Z,60.10
2023-02-11T19:10:54.254Z,59.52
2023-02-11T19:14:11.258Z,59.18
2023-02-11T19:17:20.026Z,58.48
2023-02-11T19:20:34.278Z,58.71
2023-02-11T19:23:50.243Z,59.01
2023-02-11T19:27:01.232Z,58.94
2023-02-11T19:30:10.866Z,59.34
2023-02-11T19:33:25.229Z,59.54
2023-02-11T19:36:34.355Z,59.56
2023-02-11T19:39:50.369Z,59.76
2023-02-11T19:43:08.311Z,59.64
2023-02-11T19:46:24.276Z,59.81
2023-02-11T19:49:33.906Z,59.84
2023-02-11T19:52:45.256Z,60.01
2023-02-11T19:56:01.321Z,60.29
2023-02-11T19:59:17.236Z,60.51
2023-02-11T20:02:32.779Z,60.74
2023-02-11T20:05:47.243Z,61.03
2023-02-11T20:09:23.832Z,61.00
2023-02-11T20:12:38.238Z,61.47
2023-02-11T20:15:48.421Z,61.80
2023-02-11T20:18:58.252Z,62.51
2023-02-11T20:22:13.307Z,62.63
2023-02-11T20:25:22.182Z,63.51
2023-02-11T20:28:31.314Z,64.44
2023-02-11T20:31:46.509Z,65.45
2023-02-11T20:35:20.674Z,65.94
2023-02-11T20:39:22.593Z,66.22
2023-02-11T20:50:37.413Z,67.73
2023-02-11T20:53:54.198Z,68.16
2023-02-11T20:57:06.170Z,69.02
2023-02-11T21:00:21.013Z,71.46
2023-02-11T21:03:36.290Z,72.52
2023-02-11T21:06:54.266Z,73.58
2023-02-11T21:09:57.082Z,74.69
2023-02-11T21:13:12.270Z,75.33
2023-02-11T21:16:16.477Z,75.85
2023-02-11T21:19:32.293Z,77.65
2023-02-11T21:22:43.280Z,77.23
2023-02-11T21:25:53.783Z,77.62
2023-02-11T21:29:02.266Z,77.75
2023-02-11T21:32:12.186Z,77.52
2023-02-11T21:35:20.298Z,77.64
2023-02-11T21:38:29.760Z,77.76
2023-02-11T21:41:38.339Z,77.80
2023-02-11T21:45:09.656Z,78.72
2023-02-11T21:52:32.544Z,78.85
2023-02-11T21:56:44.940Z,78.95
2023-02-11T22:04:46.450Z,80.01
2023-02-11T22:12:29.298Z,81.75
2023-02-11T22:15:37.785Z,82.69
2023-02-11T22:18:46.331Z,83.17
2023-02-11T22:22:01.286Z,83.95
2023-02-11T22:25:09.861Z,84.68
2023-02-11T22:28:24.346Z,84.78
2023-02-11T22:31:29.730Z,85.03
2023-02-11T22:34:53.689Z,84.91
2023-02-11T22:37:55.402Z,85.02
2023-02-11T22:41:14.277Z,85.66
2023-02-11T22:44:16.607Z,86.24
2023-02-11T22:47:31.321Z,86.46
2023-02-11T22:50:53.337Z,86.43
2023-02-11T22:54:03.466Z,86.75
2023-02-11T22:57:18.522Z,87.02
2023-02-11T23:00:21.283Z,87.53
2023-02-11T23:03:37.376Z,87.81
2023-02-11T23:06:41.821Z,88.24
2023-02-11T23:10:01.359Z,88.46
2023-02-11T23:17:12.575Z,89.24
2023-02-11T23:20:21.247Z,89.44
2023-02-11T23:23:29.271Z,89.18
2023-02-11T23:26:45.674Z,89.36
2023-02-11T23:30:03.583Z,89.46
2023-02-11T23:33:21.415Z,89.82
2023-02-11T23:36:23.967Z,90.48
2023-02-11T23:39:38.353Z,90.65
2023-02-11T23:42:40.219Z,90.39
2023-02-11T23:45:55.823Z,90.75
2023-02-11T23:48:57.935Z,91.10
2023-02-11T23:52:21.281Z,91.44
2023-02-11T23:55:36.323Z,91.71
2023-02-11T23:58:50.655Z,92.07
